Kibble, Illinois
Current Conditions -  °F | °C
As of 3:15 PM on Wednesday 26 Nov 2014 (Local Time) from KRSV Reporting Station
Broken Clouds Broken Clouds  
Wind Chill:   Ceiling: 12000
Heat Index:   Visibility: 10mi
Dew Point: -3°   Wind: 5mph
Humidity: 71%   Direction: 80°E
Pressure: 30.06"   Gusts: NA
Location:  39.0119°N, 87.8886°W
Report Text: KRSV 262115Z AUTO 08004KT 10SM SCT075 BKN120 02/M03 A3006 RMK AO2 T00191028
Loading
Personal Weather Stations






























Interactive Weather Map New forecast layout! Learn more

10-Day Weather Forecast

Advertisements
Track Severe Weather on mobile